Time;durP1;ratioP1;P1;durP2;ratioP2;P2;SDS_P1;SDS_P2;PMS_P1;PMS_P2;Temp;Humidity;BMP_temperature;BMP_pressure;BME280_temperature;BME280_humidity;BME280_pressure;Samples;Min_cycle;Max_cycle;Signal;HPM_P1;HPM_P2
2022/09/07 00:02:37;;;;;;;15.07;3.10;;;;;;;10.79;72.12;99337.73;2225709;79;21121;-56
2022/09/07 00:05:38;;;;;;;15.40;2.90;;;;;;;10.73;71.33;99334.97;2225747;80;21048;-56
2022/09/07 00:08:40;;;;;;;10.45;3.02;;;;;;;10.65;71.29;99333.23;2225121;80;21016;-56
2022/09/07 00:11:41;;;;;;;13.08;2.87;;;;;;;10.58;71.51;99338.79;2223015;79;21542;-56
2022/09/07 00:14:43;;;;;;;11.45;3.15;;;;;;;10.58;71.70;99342.72;2224567;79;21003;-56
2022/09/07 00:17:44;;;;;;;12.78;3.20;;;;;;;10.54;71.82;99346.46;2226225;79;21474;-56
2022/09/07 00:20:45;;;;;;;13.78;3.20;;;;;;;10.52;72.04;99342.22;2226771;79;21087;-56
2022/09/07 00:23:47;;;;;;;18.52;3.50;;;;;;;10.51;72.50;99344.45;2220246;78;21011;-56
2022/09/07 00:26:48;;;;;;;12.35;2.92;;;;;;;10.48;72.65;99338.89;2222891;79;21004;-55
2022/09/07 00:29:50;;;;;;;12.18;3.12;;;;;;;10.46;72.57;99334.65;2221839;79;21030;-55
2022/09/07 00:32:51;;;;;;;16.48;3.30;;;;;;;10.43;72.96;99334.81;2223679;79;21047;-56
2022/09/07 00:35:53;;;;;;;13.48;3.00;;;;;;;10.45;72.85;99339.06;2210479;79;20953;-55
2022/09/07 00:38:54;;;;;;;12.10;3.17;;;;;;;10.48;72.73;99336.75;2226375;79;21490;-55
2022/09/07 00:41:55;;;;;;;14.93;3.05;;;;;;;10.48;72.95;99331.50;2224970;79;21030;-54
2022/09/07 00:44:57;;;;;;;13.62;3.02;;;;;;;10.39;73.15;99329.73;2222795;79;21081;-54
2022/09/07 00:47:59;;;;;;;15.40;3.20;;;;;;;10.33;73.27;99328.72;2222789;79;21547;-55
2022/09/07 00:51:00;;;;;;;12.50;3.12;;;;;;;10.34;73.41;99325.22;2223786;79;21007;-55
2022/09/07 00:54:02;;;;;;;12.98;2.92;;;;;;;10.29;73.60;99327.19;2223591;79;21038;-55
2022/09/07 00:57:03;;;;;;;14.80;3.00;;;;;;;10.30;73.85;99335.44;2224914;79;21015;-55
2022/09/07 01:00:05;;;;;;;17.02;3.55;;;;;;;10.24;74.12;99326.56;2215640;80;21058;-56
2022/09/07 01:03:06;;;;;;;12.13;3.17;;;;;;;10.20;75.48;99320.64;2222701;79;21007;-55
2022/09/07 01:06:08;;;;;;;14.70;3.55;;;;;;;10.17;74.89;99323.42;2221465;79;21023;-55
2022/09/07 01:09:09;;;;;;;15.03;3.33;;;;;;;10.16;74.86;99325.66;2223153;80;21536;-56
2022/09/07 01:12:11;;;;;;;10.65;3.10;;;;;;;10.14;74.51;99322.28;2222429;80;21060;-56
2022/09/07 01:15:12;;;;;;;10.55;2.95;;;;;;;10.10;74.85;99323.80;2222403;80;21011;-56
2022/09/07 01:18:14;;;;;;;15.08;3.05;;;;;;;10.05;75.25;99322.26;2223949;79;20952;-56
2022/09/07 01:21:15;;;;;;;13.43;3.27;;;;;;;9.96;76.27;99321.42;2225123;79;21031;-56
2022/09/07 01:24:16;;;;;;;14.25;3.22;;;;;;;9.91;75.58;99327.83;2224297;80;20979;-56
2022/09/07 01:27:18;;;;;;;17.07;3.27;;;;;;;9.89;77.25;99323.97;2218810;79;21047;-56
2022/09/07 01:30:19;;;;;;;11.28;2.98;;;;;;;9.86;77.41;99320.20;2223270;80;21671;-55
2022/09/07 01:33:21;;;;;;;14.20;3.00;;;;;;;9.80;76.86;99316.59;2223297;80;20957;-56
2022/09/07 01:36:23;;;;;;;13.13;3.20;;;;;;;9.75;77.70;99320.72;2222712;79;21408;-56
2022/09/07 01:39:24;;;;;;;12.25;3.20;;;;;;;9.73;78.13;99315.20;2224450;79;21000;-56
2022/09/07 01:42:26;;;;;;;14.10;3.70;;;;;;;9.72;77.29;99315.64;2221043;80;21506;-55
2022/09/07 01:45:27;;;;;;;12.53;3.12;;;;;;;9.76;78.62;99311.11;2215662;79;21046;-56
2022/09/07 01:48:29;;;;;;;12.82;3.00;;;;;;;9.70;78.13;99309.64;2224349;79;21508;-56
2022/09/07 01:51:31;;;;;;;14.50;3.00;;;;;;;9.69;77.65;99306.63;2223379;79;20972;-56
2022/09/07 01:54:32;;;;;;;10.85;2.92;;;;;;;9.64;77.89;99307.30;2222966;80;21569;-55
2022/09/07 01:57:34;;;;;;;12.98;2.95;;;;;;;9.64;78.39;99301.63;2224547;80;21019;-56
2022/09/07 02:00:35;;;;;;;11.33;3.05;;;;;;;9.61;78.56;99295.23;2225193;79;20999;-56
2022/09/07 02:03:36;;;;;;;16.95;3.40;;;;;;;9.60;78.85;99286.14;2219655;80;20983;-55
2022/09/07 02:09:41;;;;;;;14.13;3.30;;;;;;;9.56;78.54;99284.59;2213621;79;20968;-56
2022/09/07 02:12:43;;;;;;;14.30;2.98;;;;;;;9.56;78.63;99274.95;2223126;79;20996;-56
2022/09/07 02:15:44;;;;;;;13.95;3.30;;;;;;;9.59;78.63;99275.28;2225239;80;21003;-55
2022/09/07 02:18:46;;;;;;;13.48;3.37;;;;;;;9.53;78.76;99277.27;2222544;80;21018;-56
2022/09/07 02:21:47;;;;;;;12.15;3.17;;;;;;;9.59;79.14;99270.88;2225463;79;21081;-55
2022/09/07 02:24:49;;;;;;;13.00;3.15;;;;;;;9.62;79.25;99267.27;2223085;79;21458;-55
2022/09/07 02:27:50;;;;;;;17.02;3.27;;;;;;;9.53;78.93;99264.17;2222708;79;20992;-54
2022/09/07 02:30:51;;;;;;;15.45;3.37;;;;;;;9.49;79.78;99261.31;2223484;79;21003;-55
2022/09/07 02:33:53;;;;;;;16.48;3.62;;;;;;;9.46;80.13;99262.78;2219770;80;20983;-55
2022/09/07 02:36:55;;;;;;;18.60;3.70;;;;;;;9.44;79.87;99269.01;2224337;79;20995;-55
2022/09/07 02:39:56;;;;;;;12.80;3.33;;;;;;;9.40;80.07;99263.56;2222830;79;21058;-55
2022/09/07 02:42:58;;;;;;;17.85;3.58;;;;;;;9.45;80.31;99265.47;2225914;79;21349;-55
2022/09/07 02:46:00;;;;;;;14.47;3.55;;;;;;;9.44;80.36;99262.02;2226926;79;21048;-55
2022/09/07 02:49:01;;;;;;;15.00;3.45;;;;;;;9.42;80.39;99257.78;2223286;79;21026;-54
2022/09/07 02:52:03;;;;;;;13.13;3.45;;;;;;;9.38;80.43;99254.92;2222566;79;21047;-54
2022/09/07 02:55:04;;;;;;;17.50;3.25;;;;;;;9.31;81.22;99252.61;2222046;79;20961;-54
2022/09/07 02:58:06;;;;;;;14.10;3.40;;;;;;;9.20;81.63;99249.66;2229280;80;20995;-54
2022/09/07 03:01:07;;;;;;;14.58;3.37;;;;;;;9.16;81.87;99244.19;2223922;78;21031;-54
2022/09/07 03:04:08;;;;;;;12.07;3.08;;;;;;;9.08;83.43;99241.09;2221454;79;21035;-55
2022/09/07 03:07:10;;;;;;;17.07;3.40;;;;;;;9.05;83.26;99247.78;2221793;79;21545;-54
2022/09/07 03:10:12;;;;;;;17.37;3.15;;;;;;;9.04;83.15;99246.08;2225531;79;20968;-55
2022/09/07 03:13:13;;;;;;;15.30;3.55;;;;;;;9.04;84.18;99248.25;2224637;79;21554;-56
2022/09/07 03:16:15;;;;;;;16.35;3.87;;;;;;;9.03;83.12;99245.71;2223491;79;21011;-56
2022/09/07 03:19:16;;;;;;;15.18;3.52;;;;;;;8.93;83.45;99247.91;2210317;79;21010;-56
2022/09/07 03:22:18;;;;;;;16.02;4.28;;;;;;;8.80;84.52;99245.03;2215492;80;20995;-56
2022/09/07 03:25:19;;;;;;;16.07;3.77;;;;;;;8.63;85.01;99244.50;2206883;80;20994;-56
2022/09/07 03:28:21;;;;;;;16.32;3.75;;;;;;;8.60;85.37;99250.71;2219407;79;21510;-55
2022/09/07 03:31:22;;;;;;;14.13;3.47;;;;;;;8.44;86.72;99252.31;2226284;79;21020;-55
2022/09/07 03:34:24;;;;;;;18.73;4.05;;;;;;;8.13;88.64;99255.84;2225237;79;21060;-56
2022/09/07 03:37:25;;;;;;;15.63;3.83;;;;;;;7.96;89.57;99256.58;2224510;79;21576;-55
2022/09/07 03:40:27;;;;;;;15.48;3.42;;;;;;;7.90;90.98;99252.94;2223145;79;20995;-55
2022/09/07 03:43:28;;;;;;;15.08;3.42;;;;;;;7.94;91.94;99247.11;2222972;79;21546;-55
2022/09/07 03:46:30;;;;;;;19.32;3.77;;;;;;;7.96;93.15;99251.82;2219377;80;20994;-55
2022/09/07 03:49:31;;;;;;;19.27;4.30;;;;;;;7.91;93.59;99255.91;2219666;80;21055;-55
2022/09/07 03:52:33;;;;;;;18.47;3.93;;;;;;;7.91;94.06;99257.69;2225261;79;21018;-55
2022/09/07 03:55:34;;;;;;;13.15;3.42;;;;;;;7.87;95.11;99249.59;2222028;80;21509;-55
2022/09/07 03:58:36;;;;;;;10.78;3.05;;;;;;;7.82;94.30;99255.48;2224362;79;21508;-55
2022/09/07 04:01:38;;;;;;;16.50;3.50;;;;;;;7.67;95.50;99258.27;2222165;79;21034;-55
2022/09/07 04:04:40;;;;;;;;;;;;;;;7.60;95.43;99259.84;2224688;79;21004;-55
2022/09/07 04:07:41;;;;;;;17.82;3.50;;;;;;;7.53;95.79;99255.80;2219174;80;20116;-55
2022/09/07 04:10:43;;;;;;;16.17;3.30;;;;;;;7.35;97.12;99250.86;2224523;79;21071;-55
2022/09/07 04:13:44;;;;;;;16.20;3.60;;;;;;;7.35;98.75;99250.03;2219695;79;21035;-55
2022/09/07 04:16:46;;;;;;;13.75;3.67;;;;;;;7.37;99.12;99249.49;2221763;79;21482;-55
2022/09/07 04:19:47;;;;;;;18.17;4.03;;;;;;;7.36;98.80;99243.91;2222900;79;21000;-55
2022/09/07 04:22:49;;;;;;;15.90;3.98;;;;;;;7.27;100.00;99252.95;2224328;80;21072;-55
2022/09/07 04:25:51;;;;;;;15.23;3.67;;;;;;;7.28;100.00;99259.42;2221348;79;20992;-55
2022/09/07 04:28:53;;;;;;;16.45;3.72;;;;;;;7.29;100.00;99267.62;2224487;79;21533;-54
2022/09/07 04:31:54;;;;;;;16.70;3.67;;;;;;;7.41;100.00;99259.77;2228157;78;20991;-56
2022/09/07 04:34:56;;;;;;;17.73;3.95;;;;;;;7.45;100.00;99256.09;2222783;79;21562;-55
2022/09/07 04:37:57;;;;;;;17.70;4.17;;;;;;;7.53;100.00;99245.36;2223369;79;21034;-55
2022/09/07 04:40:59;;;;;;;17.52;3.83;;;;;;;7.62;100.00;99251.48;2223486;79;21466;-55
2022/09/07 04:44:01;;;;;;;22.07;4.75;;;;;;;7.66;100.00;99254.83;2223771;79;20986;-54
2022/09/07 04:47:02;;;;;;;22.35;5.10;;;;;;;7.71;100.00;99254.16;2225456;79;21090;-54
2022/09/07 04:50:03;;;;;;;18.10;4.20;;;;;;;7.74;100.00;99253.19;2223989;79;21046;-55
2022/09/07 04:56:08;;;;;;;18.62;3.95;;;;;;;7.93;100.00;99253.23;2212322;79;21011;-55
2022/09/07 04:59:10;;;;;;;15.28;3.52;;;;;;;8.17;100.00;99251.31;2227718;79;21058;-54
2022/09/07 05:02:11;;;;;;;13.45;3.40;;;;;;;8.39;100.00;99250.36;2220784;80;21011;-54
2022/09/07 05:05:13;;;;;;;14.18;3.20;;;;;;;8.56;100.00;99254.41;2222620;79;21030;-54
2022/09/07 05:08:14;;;;;;;15.85;3.30;;;;;;;8.84;100.00;99254.43;2224517;80;21044;-55
2022/09/07 05:11:16;;;;;;;13.80;3.62;;;;;;;9.18;100.00;99252.83;2220738;80;21059;-54
2022/09/07 05:14:17;;;;;;;15.80;3.40;;;;;;;9.41;100.00;99253.45;2222517;79;21007;-54
2022/09/07 05:17:19;;;;;;;15.75;3.45;;;;;;;9.63;100.00;99242.77;2210509;79;21617;-55
2022/09/07 05:20:20;;;;;;;16.00;3.37;;;;;;;9.74;100.00;99245.70;2225857;78;21087;-55
2022/09/07 05:23:23;;;;;;;14.10;3.57;;;;;;;9.99;100.00;99244.44;2224340;79;21110;-55
2022/09/07 05:26:25;;;;;;;15.38;3.70;;;;;;;10.35;100.00;99238.21;2226128;79;21006;-55
2022/09/07 05:29:27;;;;;;;12.60;3.25;;;;;;;10.54;99.16;99231.50;2224701;79;21058;-55
2022/09/07 05:32:28;;;;;;;12.40;3.30;;;;;;;10.75;99.21;99230.32;2224759;79;21019;-57
2022/09/07 05:35:30;;;;;;;15.13;3.80;;;;;;;11.07;100.00;99227.67;2225450;79;21455;-55
2022/09/07 05:38:31;;;;;;;19.32;4.47;;;;;;;11.47;96.65;99225.86;2224667;80;21027;-56
2022/09/07 05:44:15;;;;;;;18.92;3.80;;;;;;;12.16;94.19;99224.03;2306791;77;22736;-58
2022/09/07 05:47:15;;;;;;;17.25;4.45;;;;;;;12.38;91.05;99230.95;2292655;77;20999;-57
2022/09/07 05:50:16;;;;;;;17.52;4.20;;;;;;;12.69;89.53;99228.20;2285382;77;21074;-58
2022/09/07 05:53:17;;;;;;;17.37;4.20;;;;;;;12.80;88.22;99230.52;2296517;77;20997;-58
2022/09/07 05:56:17;;;;;;;18.15;3.95;;;;;;;12.78;89.71;99231.08;2294153;77;20976;-58
2022/09/07 05:59:18;;;;;;;21.00;4.80;;;;;;;13.00;89.74;99224.43;2293725;77;21492;-58
2022/09/07 06:02:18;;;;;;;15.70;4.00;;;;;;;13.26;90.10;99230.66;2285774;77;20951;-58
2022/09/07 06:05:19;;;;;;;16.85;4.42;;;;;;;13.41;88.89;99227.98;2289545;77;20996;-58
2022/09/07 06:08:20;;;;;;;17.12;4.12;;;;;;;13.50;86.74;99227.36;2291307;77;21024;-58
2022/09/07 06:11:20;;;;;;;34.92;5.12;;;;;;;13.64;87.26;99228.59;2296638;77;21042;-58
2022/09/07 06:14:21;;;;;;;19.55;4.20;;;;;;;13.89;87.33;99230.05;2278406;77;20994;-58
2022/09/07 06:17:21;;;;;;;20.68;4.50;;;;;;;14.09;85.80;99224.72;2289812;77;21524;-58
2022/09/07 06:20:22;;;;;;;15.20;4.12;;;;;;;14.31;84.99;99230.66;2291368;77;21008;-58
2022/09/07 06:23:22;;;;;;;19.27;4.85;;;;;;;14.43;84.33;99223.69;2296719;77;20973;-58
2022/09/07 06:26:23;;;;;;;21.52;4.70;;;;;;;14.48;82.75;99217.14;2289666;77;21012;-57
2022/09/07 06:29:23;;;;;;;19.15;4.60;;;;;;;14.65;82.92;99209.83;2289696;77;21026;-58
2022/09/07 06:32:23;;;;;;;18.07;4.72;;;;;;;14.78;81.84;99209.80;2289068;77;21007;-58
2022/09/07 06:35:24;;;;;;;20.37;4.72;;;;;;;14.94;80.34;99220.95;2290193;77;21450;-56
2022/09/07 06:38:25;;;;;;;17.82;5.08;;;;;;;15.17;81.30;99224.54;2293242;77;21605;-57
2022/09/07 06:41:27;;;;;;;20.17;5.28;;;;;;;15.35;79.77;99224.95;2287014;77;20968;-57
2022/09/07 06:44:27;;;;;;;22.02;5.85;;;;;;;15.50;79.27;99223.44;2296704;77;21099;-57
2022/09/07 06:47:28;;;;;;;20.52;5.35;;;;;;;15.68;78.17;99223.37;2293644;77;20996;-56
2022/09/07 06:50:28;;;;;;;18.80;5.37;;;;;;;15.90;78.96;99218.66;2280100;77;20979;-56
2022/09/07 06:53:29;;;;;;;18.87;4.80;;;;;;;16.18;77.63;99219.66;2291974;77;20988;-56
2022/09/07 06:56:29;;;;;;;19.92;5.17;;;;;;;16.41;76.59;99223.14;2294029;77;20992;-57
2022/09/07 06:59:30;;;;;;;19.07;5.00;;;;;;;16.63;76.31;99220.45;2297105;77;21027;-57
2022/09/07 07:02:30;;;;;;;19.90;5.10;;;;;;;16.86;73.70;99224.38;2289727;77;21466;-56
2022/09/07 07:05:30;;;;;;;20.27;5.95;;;;;;;17.02;74.20;99221.85;2288979;77;21517;-58
2022/09/07 07:08:32;;;;;;;21.12;5.20;;;;;;;17.28;71.85;99221.89;2292896;77;21028;-58
2022/09/07 07:11:32;;;;;;;21.80;5.30;;;;;;;17.42;71.76;99221.22;2291059;77;21000;-58
2022/09/07 07:14:34;;;;;;;18.30;4.90;;;;;;;17.58;72.48;99226.91;2290907;77;20995;-58
2022/09/07 07:17:35;;;;;;;;;;;;;;;17.80;72.66;99226.42;2298907;77;21487;-58
2022/09/07 07:20:36;;;;;;;23.10;5.08;;;;;;;18.08;72.15;99223.63;2288511;77;20149;-58
2022/09/07 07:23:36;;;;;;;21.40;5.50;;;;;;;18.27;71.60;99218.05;2290982;77;21039;-58
2022/09/07 07:26:37;;;;;;;18.62;5.40;;;;;;;18.48;70.53;99216.67;2297193;77;20961;-58
2022/09/07 07:29:38;;;;;;;17.25;5.10;;;;;;;18.59;69.48;99215.72;2295687;77;21115;-58
2022/09/07 07:32:38;;;;;;;25.50;5.20;;;;;;;18.78;69.31;99213.62;2289250;77;20995;-58
2022/09/07 07:35:39;;;;;;;20.65;5.22;;;;;;;18.97;69.55;99213.66;2289529;77;21038;-58
2022/09/07 07:38:39;;;;;;;18.23;4.80;;;;;;;19.15;68.00;99217.83;2293065;77;21019;-58
2022/09/07 07:41:40;;;;;;;24.07;5.08;;;;;;;19.21;64.86;99213.27;2293145;77;21059;-58
2022/09/07 07:44:40;;;;;;;20.62;4.75;;;;;;;19.26;64.85;99214.67;2296632;77;21446;-58
2022/09/07 07:47:41;;;;;;;18.67;4.72;;;;;;;19.43;64.66;99215.30;2285702;77;21538;-58
2022/09/07 07:50:41;;;;;;;21.55;5.12;;;;;;;19.62;64.79;99214.43;2292234;77;20996;-58
2022/09/07 07:53:43;;;;;;;18.00;4.90;;;;;;;19.65;64.31;99204.00;2288271;77;20999;-58
2022/09/07 07:56:43;;;;;;;18.57;4.87;;;;;;;19.77;60.21;99205.53;2294916;77;20996;-57
2022/09/07 07:59:44;;;;;;;18.75;5.08;;;;;;;19.82;61.39;99187.83;2295663;78;21505;-58
2022/09/07 08:02:45;;;;;;;20.95;4.80;;;;;;;19.82;61.39;99187.83;2293243;77;21009;-58
2022/09/07 08:05:45;;;;;;;19.07;4.65;;;;;;;19.89;58.98;99195.58;2297341;77;21015;-58
2022/09/07 08:08:46;;;;;;;22.85;4.70;;;;;;;20.11;60.58;99198.37;2286677;77;21005;-59
2022/09/07 08:11:47;;;;;;;17.70;4.87;;;;;;;20.37;59.56;99200.37;2295231;78;20995;-58
2022/09/07 08:14:47;;;;;;;16.97;5.10;;;;;;;20.50;59.76;99193.36;2294892;77;20980;-58
2022/09/07 08:17:48;;;;;;;20.80;4.60;;;;;;;20.58;59.72;99202.80;2296590;77;21475;-59
2022/09/07 08:20:49;;;;;;;19.17;4.65;;;;;;;20.70;58.54;99194.98;2290690;77;20971;-59
2022/09/07 08:23:50;;;;;;;20.02;4.45;;;;;;;20.83;56.95;99194.63;2292418;77;20937;-59
2022/09/07 08:26:50;;;;;;;17.25;4.40;;;;;;;20.99;58.46;99191.28;2296842;77;20937;-58
2022/09/07 08:29:51;;;;;;;19.67;5.05;;;;;;;21.25;56.32;99186.52;2292970;77;20969;-57
2022/09/07 08:32:51;;;;;;;16.93;4.42;;;;;;;21.44;56.51;99190.84;2293037;77;21482;-58
2022/09/07 08:35:52;;;;;;;18.37;4.42;;;;;;;21.53;55.41;99183.26;2289511;77;21011;-57
2022/09/07 08:38:52;;;;;;;15.78;4.37;;;;;;;21.60;54.25;99186.16;2288081;77;21041;-57
2022/09/07 08:41:52;;;;;;;19.75;4.67;;;;;;;21.75;54.70;99186.41;2281351;77;20977;-57
2022/09/07 08:44:53;;;;;;;18.27;4.37;;;;;;;21.82;54.63;99186.12;2286690;77;20985;-58
2022/09/07 08:47:54;;;;;;;17.87;4.25;;;;;;;22.01;53.56;99185.09;2285289;77;20981;-58
2022/09/07 08:50:55;;;;;;;17.00;4.10;;;;;;;22.24;53.69;99178.69;2292149;77;20981;-58
2022/09/07 08:53:55;;;;;;;19.90;4.83;;;;;;;22.40;52.50;99178.45;2282244;77;20984;-56
2022/09/07 08:56:56;;;;;;;20.30;4.23;;;;;;;22.56;52.62;99170.48;2292716;77;21462;-57
2022/09/07 08:59:57;;;;;;;18.27;3.90;;;;;;;22.64;51.43;99175.00;2289014;77;21028;-58
2022/09/07 09:02:57;;;;;;;17.57;4.93;;;;;;;22.75;48.23;99172.03;2295959;77;20975;-58
2022/09/07 09:05:58;;;;;;;23.83;5.57;;;;;;;22.73;52.33;99166.50;2286387;77;21004;-59
2022/09/07 09:08:58;;;;;;;23.17;5.03;;;;;;;22.84;49.95;99168.87;2295509;77;20948;-59
2022/09/07 09:11:59;;;;;;;15.63;3.70;;;;;;;23.00;50.82;99175.59;2295290;77;21026;-58
2022/09/07 09:15:00;;;;;;;15.43;3.58;;;;;;;23.17;50.17;99165.78;2293338;77;21675;-58
2022/09/07 09:18:00;;;;;;;14.53;3.63;;;;;;;23.25;49.12;99163.60;2293644;77;20991;-58
2022/09/07 09:21:01;;;;;;;18.27;3.83;;;;;;;23.32;48.46;99161.10;2297547;77;21012;-58
2022/09/07 09:24:01;;;;;;;14.13;3.67;;;;;;;23.44;48.37;99170.96;2296131;77;20952;-58
2022/09/07 09:27:02;;;;;;;15.77;3.53;;;;;;;23.52;46.21;99163.75;2295740;78;21026;-58
2022/09/07 09:30:02;;;;;;;14.37;3.40;;;;;;;23.52;44.89;99171.78;2294740;77;20940;-59
2022/09/07 09:33:03;;;;;;;13.07;3.50;;;;;;;23.55;45.76;99164.41;2292963;77;21487;-58
2022/09/07 09:36:04;;;;;;;15.05;2.90;;;;;;;23.82;45.23;99159.17;2293000;77;21001;-58
2022/09/07 09:39:05;;;;;;;8.63;2.93;;;;;;;23.81;43.20;99162.88;2295933;77;21027;-58
2022/09/07 09:42:06;;;;;;;15.80;4.00;;;;;;;23.81;44.09;99154.85;2288470;77;21519;-58
2022/09/07 09:45:06;;;;;;;13.13;3.50;;;;;;;24.06;46.23;99160.16;2295937;77;21020;-58
2022/09/07 09:48:09;;;;;;;13.22;2.95;;;;;;;24.25;43.96;99157.57;2263857;77;21554;-58
2022/09/07 09:51:10;;;;;;;13.80;3.20;;;;;;;24.32;43.36;99159.89;2292168;77;21059;-59
2022/09/07 09:54:11;;;;;;;9.83;3.03;;;;;;;24.30;42.25;99158.72;2295809;77;20969;-59
2022/09/07 09:57:12;;;;;;;11.07;3.00;;;;;;;24.39;43.26;99157.69;2288552;77;20946;-58
2022/09/07 10:00:12;;;;;;;10.53;3.10;;;;;;;24.36;41.48;99154.52;2287418;77;21413;-58
2022/09/07 10:03:13;;;;;;;14.00;3.23;;;;;;;24.44;41.91;99158.50;2290043;77;20961;-57
2022/09/07 10:06:13;;;;;;;12.60;3.30;;;;;;;24.56;41.95;99146.87;2290742;77;20967;-58
2022/09/07 10:09:14;;;;;;;14.47;3.37;;;;;;;24.72;42.56;99152.19;2288789;77;20977;-59
2022/09/07 10:12:14;;;;;;;12.60;3.60;;;;;;;24.97;42.30;99146.65;2292684;77;21016;-58
2022/09/07 10:15:15;;;;;;;16.70;3.73;;;;;;;25.16;42.30;99147.19;2291539;77;20977;-59
2022/09/07 10:18:15;;;;;;;14.03;3.30;;;;;;;25.33;40.37;99143.38;2291823;77;21467;-59
2022/09/07 10:21:16;;;;;;;16.27;3.67;;;;;;;25.37;39.55;99140.66;2293151;77;20987;-59
2022/09/07 10:24:16;;;;;;;16.83;4.00;;;;;;;25.28;41.15;99136.33;2293043;77;20972;-59
2022/09/07 10:27:17;;;;;;;13.40;3.47;;;;;;;25.40;41.29;99138.09;2296143;78;20973;-59
2022/09/07 10:30:17;;;;;;;19.23;4.10;;;;;;;25.39;39.96;99137.79;2289470;77;20963;-59
2022/09/07 10:33:18;;;;;;;12.70;3.30;;;;;;;25.41;40.52;99131.23;2294855;77;20972;-56
2022/09/07 10:36:18;;;;;;;13.53;3.30;;;;;;;25.54;40.50;99131.94;2287097;77;21443;-56
2022/09/07 10:39:19;;;;;;;14.67;3.50;;;;;;;25.41;39.39;99130.38;2288755;77;21477;-56
2022/09/07 10:42:19;;;;;;;11.13;3.43;;;;;;;25.35;37.37;99136.48;2293020;77;21000;-57
2022/09/07 10:45:20;;;;;;;14.63;3.50;;;;;;;25.20;39.72;99133.22;2292965;77;21144;-57
2022/09/07 10:48:20;;;;;;;12.53;3.53;;;;;;;25.40;40.08;99128.69;2295653;77;20996;-57
2022/09/07 10:51:21;;;;;;;16.83;3.60;;;;;;;25.44;39.23;99128.66;2288828;77;20984;-57
2022/09/07 10:54:21;;;;;;;11.53;3.40;;;;;;;25.47;38.76;99121.58;2286874;77;21007;-56
2022/09/07 10:57:22;;;;;;;15.00;3.53;;;;;;;25.35;39.46;99123.87;2296162;78;20995;-58
2022/09/07 11:00:22;;;;;;;17.17;3.83;;;;;;;25.53;39.29;99118.19;2295904;78;21501;-58
2022/09/07 11:03:24;;;;;;;11.93;3.47;;;;;;;25.88;38.36;99108.24;2292883;77;20967;-58
2022/09/07 11:06:25;;;;;;;11.12;3.20;;;;;;;25.77;35.69;99097.44;2289997;77;21038;-58
2022/09/07 11:09:26;;;;;;;15.73;3.90;;;;;;;25.49;36.92;99112.03;2293508;77;21515;-59
2022/09/07 11:12:26;;;;;;;13.57;3.50;;;;;;;25.20;39.44;99109.58;2294134;77;21003;-58
2022/09/07 11:15:27;;;;;;;14.10;3.40;;;;;;;25.53;38.61;99107.44;2295860;77;21000;-58
2022/09/07 11:18:27;;;;;;;16.87;3.57;;;;;;;25.80;38.19;99098.41;2292637;77;20960;-58
2022/09/07 11:21:28;;;;;;;14.77;3.43;;;;;;;25.97;37.93;99097.70;2295823;77;21023;-58
2022/09/07 11:24:28;;;;;;;13.13;3.57;;;;;;;26.07;38.20;99088.88;2282990;77;20960;-58
2022/09/07 11:27:28;;;;;;;15.53;3.83;;;;;;;26.30;39.09;99083.88;2290026;77;21016;-57
2022/09/07 11:30:30;;;;;;;12.53;3.40;;;;;;;26.55;37.12;99093.79;2292907;77;21046;-59
2022/09/07 11:33:30;;;;;;;16.40;3.62;;;;;;;26.60;37.90;99098.06;2290894;77;21498;-59
2022/09/07 11:36:31;;;;;;;13.87;3.30;;;;;;;26.75;36.68;99085.95;2298149;77;20981;-58
2022/09/07 11:39:34;;;;;;;18.17;3.87;;;;;;;26.77;36.22;99085.23;2296213;78;20952;-59
2022/09/07 11:42:33;;;;;;;12.98;3.20;;;;;;;26.74;37.16;99079.42;2262241;77;21559;-60
2022/09/07 11:45:34;;;;;;;14.73;3.67;;;;;;;26.84;37.19;99081.77;2245810;78;21023;-59
2022/09/07 11:48:34;;;;;;;13.87;3.67;;;;;;;27.10;37.66;99083.88;2249055;78;20977;-58
2022/09/07 11:51:35;;;;;;;14.23;3.73;;;;;;;27.00;36.57;99080.16;2244496;79;20988;-59
2022/09/07 11:54:35;;;;;;;15.73;3.50;;;;;;;26.96;36.95;99084.27;2259905;78;21047;-59
2022/09/07 11:57:36;;;;;;;12.73;3.40;;;;;;;27.08;37.06;99077.34;2258920;78;21503;-57
2022/09/07 12:00:36;;;;;;;16.47;3.57;;;;;;;27.30;35.86;99067.35;2260527;78;21471;-58
2022/09/07 12:03:37;;;;;;;15.90;3.23;;;;;;;27.45;35.87;99067.27;2256035;78;21024;-58
2022/09/07 12:06:38;;;;;;;12.80;3.20;;;;;;;27.36;35.72;99059.03;2261643;78;21087;-56
2022/09/07 12:09:38;;;;;;;14.33;3.73;;;;;;;27.28;35.19;99055.96;2238900;78;20979;-57
2022/09/07 12:12:40;;;;;;;16.10;4.23;;;;;;;27.32;36.39;99056.38;2261384;78;21027;-58
2022/09/07 12:15:41;;;;;;;14.00;3.42;;;;;;;27.40;35.19;99053.58;2257908;78;20989;-58
2022/09/07 12:18:41;;;;;;;14.67;3.40;;;;;;;27.61;36.09;99055.87;2262076;78;20996;-56
2022/09/07 12:21:42;;;;;;;11.53;3.17;;;;;;;27.64;35.91;99045.55;2259750;78;21030;-56
2022/09/07 12:24:43;;;;;;;12.70;3.67;;;;;;;27.79;35.53;99048.62;2248985;78;21475;-57
2022/09/07 12:27:43;;;;;;;10.33;3.50;;;;;;;27.86;34.41;99044.59;2244158;79;21099;-56
2022/09/07 12:30:44;;;;;;;13.80;3.30;;;;;;;27.79;33.69;99038.66;2243046;79;20981;-58
2022/09/07 12:33:45;;;;;;;14.13;3.40;;;;;;;27.94;35.18;99052.02;2241055;79;21044;-56
2022/09/07 12:36:46;;;;;;;11.53;3.60;;;;;;;27.95;33.98;99041.52;2238892;79;21032;-57
2022/09/07 12:39:46;;;;;;;14.10;3.60;;;;;;;28.03;35.25;99037.88;2237650;79;21554;-56
2022/09/07 12:42:46;;;;;;;9.73;3.30;;;;;;;28.18;34.79;99038.52;2241837;79;20989;-57
2022/09/07 12:45:47;;;;;;;17.10;3.60;;;;;;;28.13;33.81;99030.73;2242742;79;20958;-57
2022/09/07 12:48:47;;;;;;;14.20;3.57;;;;;;;28.15;34.48;99029.50;2238459;79;21052;-58
2022/09/07 12:51:48;;;;;;;17.27;3.40;;;;;;;28.35;34.79;99030.08;2243418;79;20949;-57
2022/09/07 12:54:48;;;;;;;16.33;3.50;;;;;;;28.42;32.96;99018.78;2237876;79;20977;-59
2022/09/07 12:57:49;;;;;;;14.10;3.30;;;;;;;28.47;33.86;99021.68;2228540;79;21542;-59
2022/09/07 13:00:49;;;;;;;12.37;3.20;;;;;;;28.64;34.15;99018.63;2238845;79;21618;-59
2022/09/07 13:03:50;;;;;;;15.38;3.47;;;;;;;28.85;34.15;99025.71;2230846;79;20988;-59
2022/09/07 13:06:50;;;;;;;8.23;3.23;;;;;;;28.75;32.93;99017.17;2239602;79;21043;-59
2022/09/07 13:09:51;;;;;;;17.13;3.53;;;;;;;28.71;33.11;99018.65;2238883;79;20989;-59
2022/09/07 13:12:52;;;;;;;10.35;3.02;;;;;;;28.74;31.47;99011.48;2227085;79;20969;-60
2022/09/07 13:15:52;;;;;;;16.57;3.77;;;;;;;28.19;32.69;99009.71;2243223;79;20996;-59
2022/09/07 13:18:53;;;;;;;15.33;3.43;;;;;;;28.22;33.81;99017.39;2230264;79;20981;-60
2022/09/07 13:21:53;;;;;;;16.07;3.90;;;;;;;28.24;33.79;99018.00;2238863;79;21057;-59
2022/09/07 13:24:55;;;;;;;19.70;3.80;;;;;;;28.27;33.47;99005.46;2240486;79;21008;-59
2022/09/07 13:27:56;;;;;;;16.20;3.47;;;;;;;28.17;33.93;99013.11;2237554;79;21008;-59
2022/09/07 13:30:58;;;;;;;11.73;3.47;;;;;;;28.16;33.51;99014.98;2236382;79;21106;-60
2022/09/07 13:33:59;;;;;;;12.05;3.45;;;;;;;28.16;33.51;99012.30;2216023;78;21553;-60
2022/09/07 13:36:59;;;;;;;12.03;3.60;;;;;;;28.21;33.90;99008.16;2236396;79;21021;-60
2022/09/07 13:40:00;;;;;;;12.50;3.12;;;;;;;28.27;33.67;99010.03;2242413;79;21076;-59
2022/09/07 13:43:01;;;;;;;8.23;3.00;;;;;;;28.19;33.84;99007.02;2237956;79;22185;-59
2022/09/07 13:46:01;;;;;;;11.40;3.17;;;;;;;28.25;33.44;99004.84;2239125;79;21586;-59
2022/09/07 13:49:01;;;;;;;12.57;3.40;;;;;;;28.35;33.78;98996.36;2233914;79;21053;-60
2022/09/07 13:52:03;;;;;;;13.10;3.47;;;;;;;28.41;33.46;98992.02;2242847;79;21080;-59
2022/09/07 13:55:03;;;;;;;13.15;3.47;;;;;;;28.65;33.51;98991.97;2242941;79;21001;-60
2022/09/07 13:58:04;;;;;;;13.67;3.60;;;;;;;28.64;32.91;98983.55;2240454;79;21049;-59
2022/09/07 14:01:04;;;;;;;12.30;3.40;;;;;;;28.55;33.21;98984.25;2235742;79;21499;-59
2022/09/07 14:04:08;;;;;;;13.15;3.77;;;;;;;28.59;33.61;98988.20;2240670;79;21012;-60
2022/09/07 14:07:08;;;;;;;10.80;3.58;;;;;;;28.63;32.47;98985.44;2196117;79;21012;-59
2022/09/07 14:10:08;;;;;;;15.10;3.90;;;;;;;28.37;32.98;98980.80;2242822;79;21020;-59
2022/09/07 14:13:09;;;;;;;13.70;3.67;;;;;;;28.43;32.96;98978.64;2238109;79;21005;-58